Scroll down
FLIGHT INFORMATION
United Parcel Service (UPS)

UPS312

At Arrival Gate

VHHH
 YSSY
DATE: 2020-07-24
GATE:  -
GATE DEPARTURE: 15:00
TAKEOFF: 15:08
DATE: 2020-07-24
GATE:  -
LANDING: 23:36
GATE ARRIVAL: 23:40
FLIGHT DATA
Crew: 
Speed: 
515 kts
Altitude: 
39,008 ft
Stage Length: 
3,992.2 nm
Block Time: 
8.6 hrs
Flight Time: 
8.5 hrs
Fuel Used: 
176,810 lb
Cleared Route: VHHH PORPA TD OCEAN SKATE GRUPA SABNO MAVRA AKOTA IBOBI REKEL LEGED TOKON PALOS MARAN KALAH MASUN ZAM TANAL MOLLY BONDA AMN GUTEV IGOPO DUMAV EGORE RUVAP TASHA SARIK TAVEV VILOL MIMIB ONIVI AGETA QDI SCO CORKY SADLO BOREE YSSY
TRACK DATA
50,000 ft 1,000 kts
AIRCRAFT INFO AND CUMULATIVE STATS
Aircraft Type: 
B744BCF
Registration: 
SELCAL: 
AEDR
MSN/LN: 
26062 / 1016
Total Flights: 
3
Total Block Time: 
27.9 hrs
Total Flight Time: 
27.3 hrs
Total Fuel Used: 
630,474 lb
DATALINK LOG | Newest first | Current as of: 2022-10-04 20:14:36
LABEL SEQUENCE CONTENT Dn/Up
QD450523:40 53.4▼ Dn
QC410223:36▼ Dn
2U4925YSSY 242330Z 33005KT 9999 FEW020 BKN160 11/09 Q1026 NOSIG▲ Up
2S4925YSSY▼ Dn
5U1501TAF YSSY 241108Z 2412/2518 29008KT 9999 FEW025 FM250300 05010KT 9999 -SHRA SCT025 BKN035 FM251500 12008KT 9999 -RA BKN020▲ Up
5S1500YSSY▼ Dn
QB115815:08▼ Dn
QA024915:00 230.5▼ Dn
A35753CLEARED TO YSSY VIA OCEA2A OCEAN V5 SABNO A583 ZAM A461 AMN R340 GUTEV R340 AGETA QDI SCO H12 BOREE BORE2A. SQUAWK .▲ Up
2U5751VHHH 241530Z 02003KT 340V060 9999 FEW025 30/25 Q1008 NOSIG▲ Up
2S5750VHHH▼ Dn
Q05643[LINK ACK]▲ Up
Q05643[LINK TEST]▼ Dn


AIRCRAFT HISTORY
FLIGHT DATE FLIGHT NO. ORIGIN DESTINATION CLEARED ROUTE BLOCK TIME FLIGHT TIME FUEL USED PILOT
2020-09-21UPS34PHNL YSSY PHNL CARRP BARKR ADOWA ARVII ADISN ARTOP AKUMO ATRAS SON 20S63 23S60 25S58 MEPEM SAVER SCOTT GOMOL APAGI TESSI ADMAR SANAD MEHAN CORKY SADLO BOREE TESAT YSSY9.9 hrs9.6 hrs235,297 lbAnton Vind
2020-07-26UPS2348YSSY PHNL YSSY DIPSO GUTIV ABARB 3032S15733E 2438S16254E 2431S16300E 2103S16546E 1737S16821E 1023S17341E 0612S17632E 0156S17921E 0103S18000E 0018S17927W 0559N17423W 0906N17134W 1231N16801W 1541N16411W 1818N16039W CARRP PHNL9.4 hrs9.2 hrs218,367 lbMichael Roth
2020-07-24UPS312VHHH YSSY VHHH PORPA TD OCEAN SKATE GRUPA SABNO MAVRA AKOTA IBOBI REKEL LEGED TOKON PALOS MARAN KALAH MASUN ZAM TANAL MOLLY BONDA AMN GUTEV IGOPO DUMAV EGORE RUVAP TASHA SARIK TAVEV VILOL MIMIB ONIVI AGETA QDI SCO CORKY SADLO BOREE YSSY8.6 hrs8.5 hrs176,810 lbMichael Roth